»·PEaware :: N99442 KAVX-KSAN

N99442 :: KAVX-KSAN

FLIGHT INFORMATION

Flight Status: Arrived
Operator: Privately registered:
United States
More flights under this callsign
Pilot: Marcus R. (12677)
Aircraft: CESSNA 172 SKYHAWK
(C172)
More flights by this aircraft type
Origin: KAVX Catalina
United States
Destination: KSAN San Diego Intl-Lindbergh
United States
More flights between these airports :: More routes between these airports
Route: CSTN56
File this flight plan on PilotEdge
Remarks: I-8 Rating
Altitude:
(Current/Filed)
5,000ft
Speed:
(Current/Filed)
110kts
Departed: 26-Nov-17 10:57 AM
Arrived: 26-Nov-17 12:08 PM
Distance/Time
Traveled:
74nm/1:11
Distance/Time
To Go:
Arrived

Flight Plot

Page will automatically refresh every two minutes.


Map Options




Map Legend


Flown Route
Filed Route
Departure Airport
Arrival Airport
Navaid (VOR, NDB)
Fix

Horizontal Profiles

Position Reports

Time Latitude Longitude Heading Altitude Ground
Speed
26-Nov-17 10:41 33.403596 -118.415731 142 1605ft 0kts
26-Nov-17 10:42 33.403596 -118.415731 142 1605ft 0kts
26-Nov-17 10:43 33.403596 -118.415731 142 1605ft 0kts
26-Nov-17 10:44 33.403596 -118.415731 142 1605ft 0kts
26-Nov-17 10:45 33.403596 -118.415731 142 1605ft 0kts
26-Nov-17 10:46 33.403596 -118.415731 142 1605ft 0kts
26-Nov-17 10:47 33.403596 -118.415731 142 1605ft 0kts
26-Nov-17 10:48 33.403596 -118.415731 142 1605ft 0kts
26-Nov-17 10:49 33.403596 -118.415731 142 1605ft 0kts
26-Nov-17 10:50 33.403596 -118.415731 142 1605ft 0kts
26-Nov-17 10:51 33.403596 -118.415731 142 1605ft 0kts
26-Nov-17 10:52 33.403596 -118.415731 142 1605ft 0kts
26-Nov-17 10:53 33.403596 -118.415731 142 1605ft 0kts
26-Nov-17 10:54 33.403596 -118.415731 142 1605ft 0kts
26-Nov-17 10:55 33.403596 -118.415731 142 1605ft 0kts
26-Nov-17 10:56 33.403596 -118.415731 142 1605ft 0kts
26-Nov-17 10:57 33.403596 -118.415731 142 1605ft 0kts
26-Nov-17 10:58 33.403596 -118.415731 142 1605ft 0kts
26-Nov-17 10:59 33.403588 -118.416501 300 1605ft 11kts
26-Nov-17 11:00 33.407065 -118.411550 48 1605ft 18kts
26-Nov-17 11:01 33.407204 -118.411397 349 1605ft 0kts
26-Nov-17 11:02 33.402654 -118.419550 237 1881ft 71kts
26-Nov-17 11:03 33.389772 -118.438966 231 2933ft 81kts
26-Nov-17 11:04 33.375234 -118.460757 231 3896ft 86kts
26-Nov-17 11:05 33.357698 -118.487035 230 4132ft 101kts
26-Nov-17 11:06 33.345560 -118.472619 54 4659ft 95kts
26-Nov-17 11:07 33.361406 -118.445503 53 5013ft 112kts
26-Nov-17 11:08 33.369493 -118.408917 96 5010ft 125kts
26-Nov-17 11:09 33.366843 -118.367293 97 5007ft 125kts
26-Nov-17 11:10 33.361668 -118.325758 99 4990ft 125kts
26-Nov-17 11:11 33.357037 -118.285575 99 4981ft 120kts
26-Nov-17 11:12 33.352558 -118.246319 99 4990ft 118kts
26-Nov-17 11:13 33.348115 -118.207343 99 4981ft 118kts
26-Nov-17 11:14 33.343687 -118.168433 99 4979ft 117kts
26-Nov-17 11:15 33.339251 -118.129463 98 4985ft 121kts
26-Nov-17 11:16 33.334538 -118.088494 99 4980ft 126kts
26-Nov-17 11:17 33.329745 -118.046861 98 4980ft 126kts
26-Nov-17 11:18 33.324946 -118.005141 98 4979ft 126kts
26-Nov-17 11:19 33.320436 -117.965212 102 4982ft 116kts
26-Nov-17 11:20 33.315031 -117.927394 102 4967ft 114kts
26-Nov-17 11:21 33.309145 -117.890223 102 4985ft 114kts
26-Nov-17 11:22 33.302852 -117.852974 103 4972ft 114kts
26-Nov-17 11:23 33.296584 -117.815948 101 4985ft 113kts
26-Nov-17 11:24 33.290566 -117.778250 102 4997ft 119kts
26-Nov-17 11:25 33.283196 -117.738885 98 4979ft 120kts
26-Nov-17 11:26 33.276402 -117.699488 98 4990ft 122kts
26-Nov-17 11:27 33.269983 -117.659474 99 4999ft 122kts
26-Nov-17 11:28 33.264246 -117.619231 95 4983ft 122kts
26-Nov-17 11:29 33.260935 -117.578929 94 4992ft 124kts
26-Nov-17 11:30 33.257846 -117.538397 95 5013ft 122kts
26-Nov-17 11:31 33.252974 -117.498238 99 4992ft 122kts
26-Nov-17 11:32 33.245968 -117.458773 97 4990ft 121kts
26-Nov-17 11:33 33.238963 -117.420147 138 4992ft 121kts
26-Nov-17 11:34 33.208480 -117.403961 164 4993ft 121kts
26-Nov-17 11:35 33.176768 -117.391169 163 4992ft 122kts
26-Nov-17 11:36 33.144702 -117.379446 163 4956ft 118kts
26-Nov-17 11:37 33.113449 -117.367945 162 4962ft 119kts
26-Nov-17 11:38 33.082166 -117.356472 162 4960ft 118kts
26-Nov-17 11:39 33.051243 -117.345145 163 4955ft 117kts
26-Nov-17 11:40 33.021023 -117.330940 158 4966ft 118kts
26-Nov-17 11:41 32.995817 -117.310586 101 4953ft 113kts
26-Nov-17 11:42 32.988688 -117.273282 100 4953ft 119kts
26-Nov-17 11:43 32.981349 -117.233918 100 4956ft 123kts
26-Nov-17 11:44 32.973997 -117.194158 100 4970ft 124kts
26-Nov-17 11:45 32.967397 -117.154246 100 4975ft 125kts
26-Nov-17 11:46 32.960819 -117.113937 100 4952ft 122kts
26-Nov-17 11:47 32.954409 -117.074659 100 4956ft 121kts
26-Nov-17 11:48 32.947963 -117.035123 100 4953ft 121kts
26-Nov-17 11:49 32.941539 -116.995651 100 4959ft 121kts
26-Nov-17 11:50 32.935371 -116.956635 100 4956ft 119kts
26-Nov-17 11:51 32.929276 -116.918046 100 4992ft 119kts
26-Nov-17 11:52 32.923105 -116.878946 100 4953ft 119kts
26-Nov-17 11:53 32.917066 -116.840659 100 4955ft 117kts
26-Nov-17 11:54 32.911059 -116.802531 100 4954ft 117kts
26-Nov-17 11:55 32.891251 -116.780155 192 4965ft 116kts
26-Nov-17 11:56 32.858706 -116.786411 193 4949ft 118kts
26-Nov-17 11:57 32.826458 -116.792600 193 4952ft 117kts
26-Nov-17 11:58 32.794946 -116.801852 199 4974ft 120kts
26-Nov-17 11:59 32.764161 -116.815349 204 4952ft 116kts
26-Nov-17 12:00 32.734075 -116.829008 204 4959ft 116kts
26-Nov-17 12:01 32.703882 -116.842713 204 4952ft 115kts
26-Nov-17 12:02 32.685805 -116.869227 250 4954ft 108kts
26-Nov-17 12:03 32.673667 -116.904877 250 4540ft 121kts
26-Nov-17 12:04 32.671199 -116.942468 296 4090ft 107kts
26-Nov-17 12:05 32.682038 -116.975176 289 3779ft 110kts
26-Nov-17 12:06 32.689913 -117.008918 286 3093ft 108kts
26-Nov-17 12:07 32.695837 -117.042135 292 2678ft 95kts
26-Nov-17 12:08 32.705463 -117.074088 287 2091ft 100kts
26-Nov-17 12:09 32.712743 -117.104916 284 1526ft 95kts
26-Nov-17 12:10 32.720937 -117.135008 278 740ft 87kts
26-Nov-17 12:11 32.726661 -117.161415 289 560ft 84kts
26-Nov-17 12:12 32.732007 -117.183212 284 27ft 45kts
26-Nov-17 12:13 32.733994 -117.188111 25 20ft 0kts
26-Nov-17 12:14 32.734231 -117.188007 20 20ft 11kts
26-Nov-17 12:15 32.734865 -117.187908 189 20ft 0kts
26-Nov-17 12:16 32.734865 -117.187908 189 20ft 0kts
26-Nov-17 12:17 32.734865 -117.187908 189 20ft 0kts
26-Nov-17 12:18 32.734865 -117.187908 189 20ft 0kts
26-Nov-17 12:19 32.734865 -117.187908 189 20ft 0kts

Navigation Log

Ident Type
1. KAVX Airport
2. KSAN Airport